sensor_id;sensor_type;location;lat;lon;timestamp;pressure;altitude;pressure_sealevel;temperature;humidity
30967;BME280;17649;51.836;8.330;2022-08-21T00:00:57;101142.81;;;16.96;100.00
30967;BME280;17649;51.836;8.330;2022-08-21T00:08:12;101125.13;;;16.76;100.00
30967;BME280;17649;51.836;8.330;2022-08-21T00:15:34;101142.78;;;16.85;100.00
30967;BME280;17649;51.836;8.330;2022-08-21T00:18:46;101146.53;;;16.81;100.00
30967;BME280;17649;51.836;8.330;2022-08-21T00:22:19;101130.19;;;16.66;100.00
30967;BME280;17649;51.836;8.330;2022-08-21T00:25:33;101141.41;;;16.80;100.00
30967;BME280;17649;51.836;8.330;2022-08-21T00:29:05;101151.22;;;16.89;100.00
30967;BME280;17649;51.836;8.330;2022-08-21T00:32:33;101145.38;;;16.85;100.00
30967;BME280;17649;51.836;8.330;2022-08-21T00:35:58;101130.81;;;16.70;100.00
30967;BME280;17649;51.836;8.330;2022-08-21T00:39:23;101147.69;;;16.77;100.00
30967;BME280;17649;51.836;8.330;2022-08-21T00:42:44;101128.22;;;16.70;100.00
30967;BME280;17649;51.836;8.330;2022-08-21T00:49:58;101129.00;;;16.83;100.00
30967;BME280;17649;51.836;8.330;2022-08-21T00:59:45;101120.50;;;17.04;100.00
30967;BME280;17649;51.836;8.330;2022-08-21T01:22:42;101128.19;;;17.29;100.00
30967;BME280;17649;51.836;8.330;2022-08-21T01:25:47;101131.59;;;17.18;100.00
30967;BME280;17649;51.836;8.330;2022-08-21T01:32:49;101138.59;;;16.83;100.00
30967;BME280;17649;51.836;8.330;2022-08-21T01:40:15;101131.19;;;16.77;100.00
30967;BME280;17649;51.836;8.330;2022-08-21T02:00:47;101136.72;;;16.48;100.00
30967;BME280;17649;51.836;8.330;2022-08-21T02:04:18;101134.53;;;16.42;100.00
30967;BME280;17649;51.836;8.330;2022-08-21T02:24:11;101135.53;;;16.28;100.00
30967;BME280;17649;51.836;8.330;2022-08-21T02:27:51;101136.75;;;16.35;100.00
30967;BME280;17649;51.836;8.330;2022-08-21T02:31:46;101133.19;;;16.36;100.00
30967;BME280;17649;51.836;8.330;2022-08-21T02:34:49;101121.00;;;16.37;100.00
30967;BME280;17649;51.836;8.330;2022-08-21T02:38:32;101125.00;;;16.54;100.00
30967;BME280;17649;51.836;8.330;2022-08-21T03:21:41;101114.09;;;16.60;100.00
30967;BME280;17649;51.836;8.330;2022-08-21T03:24:56;101121.44;;;16.55;100.00
30967;BME280;17649;51.836;8.330;2022-08-21T03:28:37;101111.72;;;16.57;100.00
30967;BME280;17649;51.836;8.330;2022-08-21T03:31:44;101119.66;;;16.55;100.00
30967;BME280;17649;51.836;8.330;2022-08-21T03:35:19;101120.63;;;16.54;100.00
30967;BME280;17649;51.836;8.330;2022-08-21T03:38:21;101120.44;;;16.45;100.00
30967;BME280;17649;51.836;8.330;2022-08-21T03:58:27;101125.06;;;16.28;100.00
30967;BME280;17649;51.836;8.330;2022-08-21T04:01:29;101143.47;;;16.27;100.00
30967;BME280;17649;51.836;8.330;2022-08-21T04:04:31;101133.56;;;16.19;100.00
30967;BME280;17649;51.836;8.330;2022-08-21T04:07:34;101139.31;;;16.24;100.00
30967;BME280;17649;51.836;8.330;2022-08-21T04:10:38;101140.97;;;16.25;100.00
30967;BME280;17649;51.836;8.330;2022-08-21T04:13:41;101145.47;;;16.23;100.00
30967;BME280;17649;51.836;8.330;2022-08-21T04:16:46;101143.81;;;16.22;100.00
30967;BME280;17649;51.836;8.330;2022-08-21T04:19:52;101139.72;;;16.18;100.00
30967;BME280;17649;51.836;8.330;2022-08-21T04:22:54;101148.00;;;16.12;100.00
30967;BME280;17649;51.836;8.330;2022-08-21T04:25:56;101149.16;;;16.08;100.00
30967;BME280;17649;51.836;8.330;2022-08-21T04:29:00;101161.66;;;16.03;100.00
30967;BME280;17649;51.836;8.330;2022-08-21T04:32:01;101156.66;;;16.00;100.00
30967;BME280;17649;51.836;8.330;2022-08-21T04:35:11;101155.94;;;15.98;100.00
30967;BME280;17649;51.836;8.330;2022-08-21T04:38:16;101158.03;;;15.93;100.00
30967;BME280;17649;51.836;8.330;2022-08-21T04:41:21;101167.22;;;15.86;100.00
30967;BME280;17649;51.836;8.330;2022-08-21T04:44:28;101161.16;;;15.85;100.00
30967;BME280;17649;51.836;8.330;2022-08-21T04:47:33;101167.75;;;15.78;100.00
30967;BME280;17649;51.836;8.330;2022-08-21T04:50:52;101162.53;;;15.65;100.00
30967;BME280;17649;51.836;8.330;2022-08-21T04:54:00;101172.75;;;15.68;100.00
30967;BME280;17649;51.836;8.330;2022-08-21T04:57:05;101173.47;;;15.70;100.00
30967;BME280;17649;51.836;8.330;2022-08-21T05:00:15;101178.19;;;15.65;100.00
30967;BME280;17649;51.836;8.330;2022-08-21T05:03:18;101167.97;;;15.62;100.00
30967;BME280;17649;51.836;8.330;2022-08-21T05:06:19;101171.69;;;15.71;100.00
30967;BME280;17649;51.836;8.330;2022-08-21T05:09:22;101170.34;;;15.65;100.00
30967;BME280;17649;51.836;8.330;2022-08-21T05:12:24;101176.50;;;15.64;100.00
30967;BME280;17649;51.836;8.330;2022-08-21T05:15:25;101173.59;;;15.69;100.00
30967;BME280;17649;51.836;8.330;2022-08-21T05:18:26;101172.75;;;15.68;100.00
30967;BME280;17649;51.836;8.330;2022-08-21T05:21:26;101178.81;;;15.69;100.00
30967;BME280;17649;51.836;8.330;2022-08-21T05:24:27;101177.66;;;15.73;100.00
30967;BME280;17649;51.836;8.330;2022-08-21T05:27:27;101175.59;;;15.78;100.00
30967;BME280;17649;51.836;8.330;2022-08-21T05:30:29;101182.97;;;15.84;100.00
30967;BME280;17649;51.836;8.330;2022-08-21T05:33:34;101181.31;;;15.83;100.00
30967;BME280;17649;51.836;8.330;2022-08-21T05:36:36;101182.66;;;15.89;100.00
30967;BME280;17649;51.836;8.330;2022-08-21T05:39:37;101185.69;;;15.95;100.00
30967;BME280;17649;51.836;8.330;2022-08-21T05:42:38;101182.03;;;15.98;100.00
30967;BME280;17649;51.836;8.330;2022-08-21T05:45:40;101189.31;;;16.05;100.00
30967;BME280;17649;51.836;8.330;2022-08-21T05:48:41;101195.81;;;16.13;100.00
30967;BME280;17649;51.836;8.330;2022-08-21T05:51:42;101183.16;;;16.19;100.00
30967;BME280;17649;51.836;8.330;2022-08-21T05:54:43;101185.84;;;16.30;100.00
30967;BME280;17649;51.836;8.330;2022-08-21T05:57:47;101180.03;;;16.27;100.00
30967;BME280;17649;51.836;8.330;2022-08-21T06:00:50;101189.81;;;16.36;100.00
30967;BME280;17649;51.836;8.330;2022-08-21T06:03:57;101186.34;;;16.48;100.00
30967;BME280;17649;51.836;8.330;2022-08-21T06:06:59;101185.69;;;16.57;100.00
30967;BME280;17649;51.836;8.330;2022-08-21T06:10:00;101171.06;;;16.55;100.00
30967;BME280;17649;51.836;8.330;2022-08-21T06:13:03;101174.19;;;16.60;100.00
30967;BME280;17649;51.836;8.330;2022-08-21T06:16:16;101183.22;;;16.80;100.00
30967;BME280;17649;51.836;8.330;2022-08-21T06:19:16;101176.16;;;16.82;100.00
30967;BME280;17649;51.836;8.330;2022-08-21T06:22:17;101179.13;;;16.88;100.00
30967;BME280;17649;51.836;8.330;2022-08-21T06:25:23;101179.41;;;16.96;100.00
30967;BME280;17649;51.836;8.330;2022-08-21T06:28:24;101174.94;;;17.10;100.00
30967;BME280;17649;51.836;8.330;2022-08-21T06:31:27;101178.31;;;17.23;100.00
30967;BME280;17649;51.836;8.330;2022-08-21T06:34:27;101177.38;;;17.24;100.00
30967;BME280;17649;51.836;8.330;2022-08-21T06:37:27;101178.47;;;17.33;100.00
30967;BME280;17649;51.836;8.330;2022-08-21T06:40:29;101170.78;;;17.42;100.00
30967;BME280;17649;51.836;8.330;2022-08-21T06:43:29;101179.34;;;17.44;100.00
30967;BME280;17649;51.836;8.330;2022-08-21T06:46:31;101165.72;;;17.63;100.00
30967;BME280;17649;51.836;8.330;2022-08-21T06:49:33;101167.19;;;17.78;100.00
30967;BME280;17649;51.836;8.330;2022-08-21T06:52:36;101167.53;;;17.85;100.00
30967;BME280;17649;51.836;8.330;2022-08-21T06:55:37;101158.53;;;17.89;100.00
30967;BME280;17649;51.836;8.330;2022-08-21T06:58:38;101153.88;;;17.93;100.00
30967;BME280;17649;51.836;8.330;2022-08-21T07:01:38;101145.41;;;18.00;100.00
30967;BME280;17649;51.836;8.330;2022-08-21T07:04:39;101144.94;;;18.06;100.00
30967;BME280;17649;51.836;8.330;2022-08-21T07:07:39;101151.34;;;18.13;100.00
30967;BME280;17649;51.836;8.330;2022-08-21T07:10:40;101149.31;;;18.28;100.00
30967;BME280;17649;51.836;8.330;2022-08-21T07:13:42;101139.22;;;18.35;100.00
30967;BME280;17649;51.836;8.330;2022-08-21T07:16:43;101144.63;;;18.54;100.00
30967;BME280;17649;51.836;8.330;2022-08-21T07:19:46;101142.97;;;18.53;100.00
30967;BME280;17649;51.836;8.330;2022-08-21T07:22:46;101143.19;;;18.61;100.00
30967;BME280;17649;51.836;8.330;2022-08-21T07:25:47;101138.44;;;18.66;100.00
30967;BME280;17649;51.836;8.330;2022-08-21T07:28:49;101143.78;;;18.76;100.00
30967;BME280;17649;51.836;8.330;2022-08-21T07:31:50;101128.88;;;18.76;100.00
30967;BME280;17649;51.836;8.330;2022-08-21T07:34:51;101136.09;;;18.84;100.00
30967;BME280;17649;51.836;8.330;2022-08-21T07:37:52;101139.84;;;19.02;100.00
30967;BME280;17649;51.836;8.330;2022-08-21T07:40:58;101131.78;;;19.15;100.00
30967;BME280;17649;51.836;8.330;2022-08-21T07:44:04;101133.84;;;19.32;100.00
30967;BME280;17649;51.836;8.330;2022-08-21T07:47:08;101130.47;;;19.42;100.00
30967;BME280;17649;51.836;8.330;2022-08-21T07:50:11;101116.91;;;19.36;100.00
30967;BME280;17649;51.836;8.330;2022-08-21T07:53:15;101116.44;;;19.52;100.00
30967;BME280;17649;51.836;8.330;2022-08-21T07:56:16;101124.44;;;19.51;100.00
30967;BME280;17649;51.836;8.330;2022-08-21T07:59:17;101113.44;;;19.57;100.00
30967;BME280;17649;51.836;8.330;2022-08-21T08:02:25;101120.41;;;19.68;100.00
30967;BME280;17649;51.836;8.330;2022-08-21T08:05:28;101105.84;;;19.84;100.00
30967;BME280;17649;51.836;8.330;2022-08-21T08:08:30;101101.31;;;19.96;100.00
30967;BME280;17649;51.836;8.330;2022-08-21T08:11:32;101097.47;;;20.00;100.00
30967;BME280;17649;51.836;8.330;2022-08-21T08:14:34;101093.06;;;20.10;100.00
30967;BME280;17649;51.836;8.330;2022-08-21T08:17:36;101082.84;;;20.17;100.00
30967;BME280;17649;51.836;8.330;2022-08-21T08:20:39;101085.50;;;20.27;100.00
30967;BME280;17649;51.836;8.330;2022-08-21T08:23:42;101085.63;;;20.35;100.00
30967;BME280;17649;51.836;8.330;2022-08-21T08:26:51;101089.78;;;20.37;100.00
30967;BME280;17649;51.836;8.330;2022-08-21T08:29:54;101088.88;;;20.48;100.00
30967;BME280;17649;51.836;8.330;2022-08-21T08:33:00;101087.09;;;20.58;100.00
30967;BME280;17649;51.836;8.330;2022-08-21T08:36:02;101073.94;;;20.68;100.00
30967;BME280;17649;51.836;8.330;2022-08-21T08:39:07;101074.91;;;20.86;100.00
30967;BME280;17649;51.836;8.330;2022-08-21T08:42:09;101069.91;;;20.93;100.00
30967;BME280;17649;51.836;8.330;2022-08-21T08:45:18;101063.13;;;21.00;100.00
30967;BME280;17649;51.836;8.330;2022-08-21T08:51:42;101053.09;;;21.23;100.00
30967;BME280;17649;51.836;8.330;2022-08-21T08:54:50;101053.53;;;21.28;100.00
30967;BME280;17649;51.836;8.330;2022-08-21T08:57:53;101052.38;;;21.40;100.00
30967;BME280;17649;51.836;8.330;2022-08-21T09:00:59;101048.09;;;21.39;100.00
30967;BME280;17649;51.836;8.330;2022-08-21T09:04:03;101043.66;;;21.77;100.00
30967;BME280;17649;51.836;8.330;2022-08-21T09:07:40;101032.81;;;22.07;100.00
30967;BME280;17649;51.836;8.330;2022-08-21T09:11:23;101032.53;;;22.00;100.00
30967;BME280;17649;51.836;8.330;2022-08-21T09:18:02;101021.59;;;22.41;100.00
30967;BME280;17649;51.836;8.330;2022-08-21T09:21:31;101012.34;;;22.98;100.00
30967;BME280;17649;51.836;8.330;2022-08-21T09:28:14;101010.13;;;23.11;100.00
30967;BME280;17649;51.836;8.330;2022-08-21T09:31:24;101004.56;;;23.57;100.00
30967;BME280;17649;51.836;8.330;2022-08-21T09:34:30;101014.59;;;23.87;100.00
30967;BME280;17649;51.836;8.330;2022-08-21T09:37:33;101010.09;;;23.79;100.00
30967;BME280;17649;51.836;8.330;2022-08-21T09:43:38;100999.28;;;23.57;100.00
30967;BME280;17649;51.836;8.330;2022-08-21T09:46:50;100995.91;;;23.72;100.00
30967;BME280;17649;51.836;8.330;2022-08-21T09:49:52;100993.50;;;24.03;100.00
30967;BME280;17649;51.836;8.330;2022-08-21T09:52:59;100991.47;;;23.89;100.00
30967;BME280;17649;51.836;8.330;2022-08-21T09:56:05;100993.78;;;23.84;100.00
30967;BME280;17649;51.836;8.330;2022-08-21T09:59:35;100985.47;;;23.63;100.00
30967;BME280;17649;51.836;8.330;2022-08-21T11:08:41;100932.63;;;25.40;100.00
30967;BME280;17649;51.836;8.330;2022-08-21T11:12:34;100932.78;;;25.16;100.00
30967;BME280;17649;51.836;8.330;2022-08-21T11:20:15;100936.25;;;26.24;100.00
30967;BME280;17649;51.836;8.330;2022-08-21T12:21:28;100918.13;;;30.89;44.93
30967;BME280;17649;51.836;8.330;2022-08-21T14:49:35;100878.31;;;38.97;28.80
30967;BME280;17649;51.836;8.330;2022-08-21T14:52:37;100894.00;;;38.85;26.33
30967;BME280;17649;51.836;8.330;2022-08-21T14:55:48;100895.13;;;36.31;28.92
30967;BME280;17649;51.836;8.330;2022-08-21T14:59:07;100891.09;;;36.51;29.68
30967;BME280;17649;51.836;8.330;2022-08-21T15:02:12;100888.91;;;38.41;27.39
30967;BME280;17649;51.836;8.330;2022-08-21T15:05:17;100885.22;;;40.07;26.33
30967;BME280;17649;51.836;8.330;2022-08-21T15:08:24;100885.34;;;41.16;25.13
30967;BME280;17649;51.836;8.330;2022-08-21T15:11:34;100889.03;;;39.55;25.87
30967;BME280;17649;51.836;8.330;2022-08-21T15:14:42;100884.06;;;40.38;25.60
30967;BME280;17649;51.836;8.330;2022-08-21T15:17:43;100877.53;;;40.44;25.40
30967;BME280;17649;51.836;8.330;2022-08-21T15:20:45;100877.06;;;40.97;25.06
30967;BME280;17649;51.836;8.330;2022-08-21T15:23:49;100859.34;;;41.83;24.06
30967;BME280;17649;51.836;8.330;2022-08-21T15:26:51;100871.31;;;41.03;24.91
30967;BME280;17649;51.836;8.330;2022-08-21T15:29:57;100872.53;;;41.60;24.53
30967;BME280;17649;51.836;8.330;2022-08-21T15:33:07;100877.84;;;40.28;24.56
30967;BME280;17649;51.836;8.330;2022-08-21T15:36:17;100882.13;;;38.34;26.67
30967;BME280;17649;51.836;8.330;2022-08-21T15:39:24;100881.69;;;37.46;28.17
30967;BME280;17649;51.836;8.330;2022-08-21T15:42:28;100884.38;;;35.98;29.27
30967;BME280;17649;51.836;8.330;2022-08-21T15:45:37;100885.44;;;34.54;32.45
30967;BME280;17649;51.836;8.330;2022-08-21T15:48:38;100879.50;;;32.85;34.93
30967;BME280;17649;51.836;8.330;2022-08-21T15:51:49;100884.81;;;33.22;36.07
30967;BME280;17649;51.836;8.330;2022-08-21T15:54:52;100871.53;;;36.38;30.72
30967;BME280;17649;51.836;8.330;2022-08-21T15:57:54;100877.44;;;36.57;29.61
30967;BME280;17649;51.836;8.330;2022-08-21T16:00:57;100869.91;;;35.70;30.43
30967;BME280;17649;51.836;8.330;2022-08-21T16:04:00;100876.84;;;35.49;32.29
30967;BME280;17649;51.836;8.330;2022-08-21T16:07:02;100879.22;;;33.24;33.83
30967;BME280;17649;51.836;8.330;2022-08-21T16:10:14;100875.94;;;33.40;34.12
30967;BME280;17649;51.836;8.330;2022-08-21T16:13:20;100876.91;;;34.57;32.58
30967;BME280;17649;51.836;8.330;2022-08-21T16:16:23;100876.50;;;35.46;31.38
30967;BME280;17649;51.836;8.330;2022-08-21T16:19:25;100875.69;;;34.77;32.20
30967;BME280;17649;51.836;8.330;2022-08-21T16:22:27;100870.41;;;33.65;34.72
30967;BME280;17649;51.836;8.330;2022-08-21T16:25:30;100890.59;;;32.27;37.67
30967;BME280;17649;51.836;8.330;2022-08-21T16:28:34;100876.91;;;31.23;37.36
30967;BME280;17649;51.836;8.330;2022-08-21T16:31:37;100885.19;;;30.23;41.29
30967;BME280;17649;51.836;8.330;2022-08-21T16:34:39;100882.06;;;29.67;48.40
30967;BME280;17649;51.836;8.330;2022-08-21T16:37:45;100887.03;;;29.22;49.15
30967;BME280;17649;51.836;8.330;2022-08-21T16:40:54;100877.28;;;28.88;50.04
30967;BME280;17649;51.836;8.330;2022-08-21T16:43:56;100882.44;;;28.62;52.56
30967;BME280;17649;51.836;8.330;2022-08-21T16:46:57;100881.75;;;28.25;56.71
30967;BME280;17649;51.836;8.330;2022-08-21T16:49:58;100884.25;;;28.05;55.64
30967;BME280;17649;51.836;8.330;2022-08-21T16:53:00;100887.31;;;28.02;69.32
30967;BME280;17649;51.836;8.330;2022-08-21T16:56:01;100889.19;;;28.08;66.24
30967;BME280;17649;51.836;8.330;2022-08-21T16:59:05;100894.66;;;28.00;65.00
30967;BME280;17649;51.836;8.330;2022-08-21T17:05:26;100893.78;;;27.72;64.04
30967;BME280;17649;51.836;8.330;2022-08-21T17:08:27;100884.38;;;27.54;63.92
30967;BME280;17649;51.836;8.330;2022-08-21T17:11:35;100886.84;;;27.20;64.32
30967;BME280;17649;51.836;8.330;2022-08-21T17:14:36;100887.03;;;27.03;68.57
30967;BME280;17649;51.836;8.330;2022-08-21T17:17:38;100882.84;;;26.94;73.35
30967;BME280;17649;51.836;8.330;2022-08-21T17:20:44;100880.91;;;26.88;75.00
30967;BME280;17649;51.836;8.330;2022-08-21T17:23:47;100883.09;;;26.85;70.89
30967;BME280;17649;51.836;8.330;2022-08-21T17:26:47;100884.38;;;26.74;72.30
30967;BME280;17649;51.836;8.330;2022-08-21T17:29:49;100884.94;;;26.55;72.94
30967;BME280;17649;51.836;8.330;2022-08-21T17:32:54;100878.16;;;26.52;84.61
30967;BME280;17649;51.836;8.330;2022-08-21T17:35:57;100886.19;;;26.44;78.32
30967;BME280;17649;51.836;8.330;2022-08-21T17:38:58;100885.69;;;26.26;84.50
30967;BME280;17649;51.836;8.330;2022-08-21T17:41:59;100885.19;;;26.07;82.99
30967;BME280;17649;51.836;8.330;2022-08-21T17:45:02;100886.78;;;25.94;87.06
30967;BME280;17649;51.836;8.330;2022-08-21T17:48:03;100883.56;;;25.83;92.73
30967;BME280;17649;51.836;8.330;2022-08-21T17:51:03;100882.25;;;25.79;96.99
30967;BME280;17649;51.836;8.330;2022-08-21T17:54:04;100891.09;;;25.72;100.00
30967;BME280;17649;51.836;8.330;2022-08-21T17:57:07;100887.47;;;25.65;98.66
30967;BME280;17649;51.836;8.330;2022-08-21T18:00:13;100888.84;;;25.61;100.00
30967;BME280;17649;51.836;8.330;2022-08-21T18:03:18;100893.34;;;25.52;100.00
30967;BME280;17649;51.836;8.330;2022-08-21T18:06:19;100897.84;;;25.43;100.00
30967;BME280;17649;51.836;8.330;2022-08-21T18:09:19;100896.44;;;25.33;100.00
30967;BME280;17649;51.836;8.330;2022-08-21T18:12:22;100892.53;;;25.20;100.00
30967;BME280;17649;51.836;8.330;2022-08-21T18:15:24;100893.72;;;25.10;100.00
30967;BME280;17649;51.836;8.330;2022-08-21T18:18:25;100895.06;;;24.97;100.00
30967;BME280;17649;51.836;8.330;2022-08-21T18:21:26;100897.59;;;24.83;100.00
30967;BME280;17649;51.836;8.330;2022-08-21T18:24:26;100901.94;;;24.67;100.00
30967;BME280;17649;51.836;8.330;2022-08-21T18:27:27;100904.44;;;24.53;100.00
30967;BME280;17649;51.836;8.330;2022-08-21T18:30:27;100912.06;;;24.39;100.00
30967;BME280;17649;51.836;8.330;2022-08-21T18:33:28;100909.91;;;24.27;100.00
30967;BME280;17649;51.836;8.330;2022-08-21T18:36:29;100913.88;;;24.15;100.00
30967;BME280;17649;51.836;8.330;2022-08-21T18:39:29;100915.53;;;23.99;100.00
30967;BME280;17649;51.836;8.330;2022-08-21T18:42:31;100921.47;;;23.85;100.00
30967;BME280;17649;51.836;8.330;2022-08-21T18:45:36;100922.44;;;23.68;100.00
30967;BME280;17649;51.836;8.330;2022-08-21T18:48:36;100934.75;;;23.51;100.00
30967;BME280;17649;51.836;8.330;2022-08-21T18:51:36;100931.34;;;23.33;100.00
30967;BME280;17649;51.836;8.330;2022-08-21T18:54:37;100936.72;;;23.15;100.00
30967;BME280;17649;51.836;8.330;2022-08-21T18:57:38;100944.56;;;22.99;100.00
30967;BME280;17649;51.836;8.330;2022-08-21T19:00:45;100951.53;;;22.82;100.00
30967;BME280;17649;51.836;8.330;2022-08-21T19:03:48;100947.81;;;22.67;100.00
30967;BME280;17649;51.836;8.330;2022-08-21T19:06:50;100951.16;;;22.51;100.00
30967;BME280;17649;51.836;8.330;2022-08-21T19:09:51;100949.09;;;22.37;100.00
30967;BME280;17649;51.836;8.330;2022-08-21T19:12:53;100955.41;;;22.26;100.00
30967;BME280;17649;51.836;8.330;2022-08-21T19:15:55;100956.47;;;22.15;100.00
30967;BME280;17649;51.836;8.330;2022-08-21T19:18:59;100956.41;;;22.07;100.00
30967;BME280;17649;51.836;8.330;2022-08-21T19:22:02;100960.56;;;22.00;100.00
30967;BME280;17649;51.836;8.330;2022-08-21T19:25:03;100963.81;;;21.94;100.00
30967;BME280;17649;51.836;8.330;2022-08-21T19:28:05;100955.69;;;21.87;100.00
30967;BME280;17649;51.836;8.330;2022-08-21T19:31:42;100954.78;;;21.79;100.00
30967;BME280;17649;51.836;8.330;2022-08-21T19:34:35;100964.69;;;21.67;100.00
30967;BME280;17649;51.836;8.330;2022-08-21T19:37:37;100966.41;;;21.58;100.00
30967;BME280;17649;51.836;8.330;2022-08-21T19:40:46;100971.56;;;21.50;100.00
30967;BME280;17649;51.836;8.330;2022-08-21T19:43:51;100965.25;;;21.43;100.00
30967;BME280;17649;51.836;8.330;2022-08-21T19:46:53;100962.94;;;21.30;100.00
30967;BME280;17649;51.836;8.330;2022-08-21T19:49:55;100971.38;;;21.24;100.00
30967;BME280;17649;51.836;8.330;2022-08-21T19:52:56;100967.97;;;21.14;100.00
30967;BME280;17649;51.836;8.330;2022-08-21T19:55:57;100958.44;;;21.03;100.00
30967;BME280;17649;51.836;8.330;2022-08-21T19:58:59;100962.91;;;20.93;100.00
30967;BME280;17649;51.836;8.330;2022-08-21T20:02:06;100969.84;;;20.84;100.00
30967;BME280;17649;51.836;8.330;2022-08-21T20:05:08;100978.44;;;20.77;100.00
30967;BME280;17649;51.836;8.330;2022-08-21T20:08:08;100981.91;;;20.68;100.00
30967;BME280;17649;51.836;8.330;2022-08-21T20:11:10;100968.25;;;20.54;100.00
30967;BME280;17649;51.836;8.330;2022-08-21T20:14:13;100975.84;;;20.48;100.00
30967;BME280;17649;51.836;8.330;2022-08-21T20:17:15;100973.50;;;20.45;100.00
30967;BME280;17649;51.836;8.330;2022-08-21T20:20:20;100969.88;;;20.36;100.00
30967;BME280;17649;51.836;8.330;2022-08-21T20:23:22;100971.81;;;20.34;100.00
30967;BME280;17649;51.836;8.330;2022-08-21T20:26:25;100974.19;;;20.28;100.00
30967;BME280;17649;51.836;8.330;2022-08-21T20:29:26;100971.84;;;20.24;100.00
30967;BME280;17649;51.836;8.330;2022-08-21T20:32:28;100968.78;;;20.19;100.00
30967;BME280;17649;51.836;8.330;2022-08-21T20:35:28;100962.97;;;20.16;100.00
30967;BME280;17649;51.836;8.330;2022-08-21T20:38:29;100965.44;;;20.08;100.00
30967;BME280;17649;51.836;8.330;2022-08-21T20:41:30;100969.75;;;20.09;100.00
30967;BME280;17649;51.836;8.330;2022-08-21T20:44:33;100970.97;;;20.05;100.00
30967;BME280;17649;51.836;8.330;2022-08-21T20:47:36;100968.63;;;20.02;100.00
30967;BME280;17649;51.836;8.330;2022-08-21T20:50:42;100968.22;;;19.97;100.00
30967;BME280;17649;51.836;8.330;2022-08-21T20:53:47;100974.28;;;19.87;100.00
30967;BME280;17649;51.836;8.330;2022-08-21T20:56:59;100973.16;;;19.80;100.00
30967;BME280;17649;51.836;8.330;2022-08-21T21:00:05;100982.53;;;19.73;100.00
30967;BME280;17649;51.836;8.330;2022-08-21T21:03:16;100988.34;;;19.67;100.00
30967;BME280;17649;51.836;8.330;2022-08-21T21:06:22;100989.81;;;19.60;100.00
30967;BME280;17649;51.836;8.330;2022-08-21T21:09:32;100986.78;;;19.55;100.00
30967;BME280;17649;51.836;8.330;2022-08-21T21:12:35;100994.88;;;19.52;100.00
30967;BME280;17649;51.836;8.330;2022-08-21T21:15:37;100989.19;;;19.47;100.00
30967;BME280;17649;51.836;8.330;2022-08-21T21:18:40;100993.44;;;19.38;100.00
30967;BME280;17649;51.836;8.330;2022-08-21T21:21:50;100992.31;;;19.31;100.00
30967;BME280;17649;51.836;8.330;2022-08-21T21:28:23;100995.53;;;19.14;100.00
30967;BME280;17649;51.836;8.330;2022-08-21T21:31:19;100996.91;;;19.08;100.00
30967;BME280;17649;51.836;8.330;2022-08-21T21:34:24;100993.13;;;19.01;100.00
30967;BME280;17649;51.836;8.330;2022-08-21T21:47:08;101002.09;;;18.77;100.00
30967;BME280;17649;51.836;8.330;2022-08-21T21:50:28;101007.97;;;18.70;100.00
30967;BME280;17649;51.836;8.330;2022-08-21T21:57:16;101005.34;;;18.59;100.00
30967;BME280;17649;51.836;8.330;2022-08-21T22:00:14;101010.53;;;18.49;100.00
